createdAt,value
2023-03-11T00:02:23.614Z,13.40
2023-03-11T00:04:50.541Z,13.33
2023-03-11T00:07:17.493Z,13.26
2023-03-11T00:09:46.830Z,13.23
2023-03-11T00:12:13.769Z,13.20
2023-03-11T00:14:40.859Z,13.18
2023-03-11T00:17:07.769Z,13.19
2023-03-11T00:19:34.688Z,13.18
2023-03-11T00:22:02.419Z,13.16
2023-03-11T00:24:29.336Z,13.15
2023-03-11T00:26:57.704Z,13.12
2023-03-11T00:29:24.660Z,13.10
2023-03-11T00:31:52.032Z,13.05
2023-03-11T00:34:18.947Z,13.04
2023-03-11T00:36:45.854Z,13.00
2023-03-11T00:39:13.117Z,13.00
2023-03-11T00:41:40.088Z,13.00
2023-03-11T00:44:08.466Z,12.94
2023-03-11T00:46:35.538Z,12.95
2023-03-11T00:49:02.504Z,12.99
2023-03-11T00:51:29.663Z,13.04
2023-03-11T00:53:56.664Z,13.09
2023-03-11T00:56:23.856Z,13.14
2023-03-11T00:58:50.869Z,13.16
2023-03-11T01:01:20.521Z,13.11
2023-03-11T01:03:47.707Z,13.12
2023-03-11T01:06:15.102Z,13.15
2023-03-11T01:08:42.160Z,13.19
2023-03-11T01:11:10.325Z,13.26
2023-03-11T01:13:38.717Z,13.31
2023-03-11T01:16:06.031Z,13.39
2023-03-11T01:18:34.386Z,13.50
2023-03-11T01:21:01.281Z,13.57
2023-03-11T01:23:28.899Z,13.68
2023-03-11T01:25:55.938Z,13.72
2023-03-11T01:28:22.914Z,13.76
2023-03-11T01:30:51.362Z,13.78
2023-03-11T01:33:20.150Z,13.83
2023-03-11T01:35:50.401Z,13.88
2023-03-11T01:38:21.080Z,13.83
2023-03-11T01:40:51.033Z,13.82
2023-03-11T01:43:40.710Z,13.86
2023-03-11T01:46:19.639Z,13.90
2023-03-11T01:48:49.113Z,13.89
2023-03-11T01:51:21.000Z,13.91
2023-03-11T01:53:48.589Z,13.91
2023-03-11T01:56:15.621Z,13.90
2023-03-11T01:58:46.423Z,13.85
2023-03-11T02:01:13.711Z,13.83
2023-03-11T02:03:42.507Z,13.85
2023-03-11T02:06:14.264Z,13.82
2023-03-11T02:08:44.185Z,13.80
2023-03-11T02:11:18.618Z,13.82
2023-03-11T02:13:46.511Z,13.81
2023-03-11T02:16:14.327Z,13.83
2023-03-11T02:18:43.102Z,13.85
2023-03-11T02:21:23.429Z,13.88
2023-03-11T02:23:59.909Z,13.87
2023-03-11T02:26:32.847Z,13.84
2023-03-11T02:29:04.260Z,13.86
2023-03-11T02:31:32.109Z,13.90
2023-03-11T02:34:02.785Z,13.89
2023-03-11T02:36:35.235Z,13.84
2023-03-11T02:39:03.923Z,13.78
2023-03-11T02:41:33.037Z,13.71
2023-03-11T02:44:02.948Z,13.63
2023-03-11T02:46:31.708Z,13.53
2023-03-11T02:49:00.185Z,13.47
2023-03-11T02:51:27.308Z,13.39
2023-03-11T02:53:59.543Z,13.30
2023-03-11T02:56:27.463Z,13.16
2023-03-11T02:58:54.463Z,13.09
2023-03-11T03:01:23.199Z,13.00
2023-03-11T03:03:51.279Z,12.94
2023-03-11T03:06:18.426Z,12.88
2023-03-11T03:08:45.374Z,12.81
2023-03-11T03:11:12.362Z,12.76
2023-03-11T03:13:39.979Z,12.70
2023-03-11T03:16:07.669Z,12.63
2023-03-11T03:18:36.259Z,12.55
2023-03-11T03:21:05.592Z,12.53
2023-03-11T03:23:35.345Z,12.51
2023-03-11T03:26:02.554Z,12.51
2023-03-11T03:28:29.903Z,12.50
2023-03-11T03:31:03.181Z,12.48
2023-03-11T03:33:31.229Z,12.45
2023-03-11T03:35:59.949Z,12.44
2023-03-11T03:38:30.893Z,12.45
2023-03-11T03:40:57.916Z,12.45
2023-03-11T03:43:25.376Z,12.41
2023-03-11T03:45:56.713Z,12.41
2023-03-11T03:48:25.104Z,12.38
2023-03-11T03:50:52.943Z,12.35
2023-03-11T03:53:21.854Z,12.33
2023-03-11T03:55:50.877Z,12.32
2023-03-11T03:58:18.997Z,12.27
2023-03-11T04:00:45.995Z,12.25
2023-03-11T04:03:13.119Z,12.23
2023-03-11T04:05:47.301Z,12.20
2023-03-11T04:08:14.771Z,12.17
2023-03-11T04:10:43.104Z,12.12
2023-03-11T04:13:10.170Z,12.05
2023-03-11T04:15:38.611Z,11.91
2023-03-11T04:18:06.026Z,11.87
2023-03-11T04:20:33.013Z,11.81
2023-03-11T04:23:00.359Z,11.78
2023-03-11T04:25:27.876Z,11.79
2023-03-11T04:27:56.280Z,11.73
2023-03-11T04:30:23.510Z,11.73
2023-03-11T04:32:55.200Z,11.73
2023-03-11T04:35:22.332Z,11.67
2023-03-11T04:37:49.347Z,11.61
2023-03-11T04:40:17.034Z,11.60
2023-03-11T04:42:44.807Z,11.63
2023-03-11T04:45:13.575Z,11.56
2023-03-11T04:47:42.686Z,11.50
2023-03-11T04:50:10.612Z,11.49
2023-03-11T04:52:37.585Z,11.47
2023-03-11T04:55:05.463Z,11.48
2023-03-11T04:57:33.232Z,11.52
2023-03-11T05:00:00.754Z,11.50
2023-03-11T05:02:29.772Z,11.51
2023-03-11T05:05:00.017Z,11.54
2023-03-11T05:07:27.542Z,11.57
2023-03-11T05:09:55.242Z,11.60
2023-03-11T05:12:22.417Z,11.63
2023-03-11T05:14:52.580Z,11.67
2023-03-11T05:17:19.853Z,11.68
2023-03-11T05:19:49.728Z,11.73
2023-03-11T05:22:24.263Z,11.78
2023-03-11T05:24:51.908Z,11.84
2023-03-11T05:27:19.936Z,11.91
2023-03-11T05:29:51.033Z,11.95
2023-03-11T05:32:19.707Z,11.98
2023-03-11T05:34:50.111Z,12.02
2023-03-11T05:37:17.544Z,12.08
2023-03-11T05:39:46.634Z,12.15
2023-03-11T05:42:14.925Z,12.22
2023-03-11T05:44:48.906Z,12.26
2023-03-11T05:47:16.860Z,12.23
2023-03-11T05:49:49.098Z,12.21
2023-03-11T05:52:18.191Z,12.33
2023-03-11T05:54:45.478Z,12.42
2023-03-11T05:57:12.685Z,12.53
2023-03-11T05:59:39.627Z,12.72
2023-03-11T06:02:06.621Z,12.85
2023-03-11T06:04:34.031Z,12.90
2023-03-11T06:07:04.755Z,12.92
2023-03-11T06:09:38.474Z,12.96
2023-03-11T06:12:09.436Z,13.04
2023-03-11T06:14:49.097Z,13.09
2023-03-11T06:17:16.442Z,13.18
2023-03-11T06:19:43.655Z,13.25
2023-03-11T06:22:12.022Z,13.27
2023-03-11T06:24:39.036Z,13.29
2023-03-11T06:27:06.975Z,13.31
2023-03-11T06:29:33.983Z,13.33
2023-03-11T06:32:01.143Z,13.34
2023-03-11T06:34:28.307Z,13.39
2023-03-11T06:36:55.489Z,13.40
2023-03-11T06:39:23.757Z,13.40
2023-03-11T06:41:52.332Z,13.34
2023-03-11T06:44:19.274Z,13.37
2023-03-11T06:46:46.966Z,13.32
2023-03-11T06:49:15.790Z,13.31
2023-03-11T06:51:43.072Z,13.30
2023-03-11T06:54:11.505Z,13.32
2023-03-11T06:56:42.795Z,13.35
2023-03-11T06:59:11.869Z,13.35
2023-03-11T07:01:38.974Z,13.36
2023-03-11T07:04:07.657Z,13.38
2023-03-11T07:06:36.840Z,13.37
2023-03-11T07:09:12.471Z,13.38
2023-03-11T07:11:44.082Z,13.39
2023-03-11T07:14:15.004Z,13.37
2023-03-11T07:16:46.442Z,13.37
2023-03-11T07:19:23.598Z,13.40
2023-03-11T07:21:51.326Z,13.46
2023-03-11T07:24:18.313Z,13.50
2023-03-11T07:26:46.806Z,13.55
2023-03-11T07:29:13.723Z,13.59
2023-03-11T07:31:41.584Z,13.68
2023-03-11T07:34:11.726Z,13.72
2023-03-11T07:36:40.656Z,13.78
2023-03-11T07:39:07.953Z,13.82
2023-03-11T07:41:35.742Z,13.89
2023-03-11T07:44:04.998Z,14.04
2023-03-11T07:46:32.978Z,14.15
2023-03-11T07:49:01.341Z,14.24
2023-03-11T07:51:29.790Z,14.31
2023-03-11T07:53:57.826Z,14.41
2023-03-11T07:56:25.902Z,14.57
2023-03-11T07:58:53.327Z,14.66
2023-03-11T08:01:23.797Z,14.87
2023-03-11T08:03:57.062Z,15.16
2023-03-11T08:06:25.919Z,15.29
2023-03-11T08:08:53.481Z,15.31
2023-03-11T08:11:21.439Z,15.30
2023-03-11T08:13:48.571Z,15.27
2023-03-11T08:16:17.247Z,15.18
2023-03-11T08:18:46.011Z,15.23
2023-03-11T08:21:14.714Z,15.37
2023-03-11T08:23:44.244Z,15.74
2023-03-11T08:26:15.244Z,16.17
2023-03-11T08:28:42.817Z,16.40
2023-03-11T08:31:14.082Z,16.82
2023-03-11T08:33:41.733Z,17.32
2023-03-11T08:36:10.558Z,17.47
2023-03-11T08:38:37.659Z,17.33
2023-03-11T08:41:05.089Z,17.15
2023-03-11T08:43:32.003Z,16.94
2023-03-11T08:46:01.062Z,16.63
2023-03-11T08:48:28.525Z,16.44
2023-03-11T08:50:56.328Z,16.31
2023-03-11T08:53:25.076Z,16.45
2023-03-11T08:55:52.995Z,16.60
2023-03-11T08:58:20.488Z,16.67
2023-03-11T09:00:47.806Z,16.96
2023-03-11T09:03:14.756Z,17.04
2023-03-11T09:05:41.777Z,17.17
2023-03-11T09:08:08.861Z,17.06
2023-03-11T09:10:37.262Z,16.92
2023-03-11T09:13:04.279Z,16.76
2023-03-11T09:15:31.243Z,16.72
2023-03-11T09:17:59.683Z,16.70
2023-03-11T09:20:26.735Z,16.64
2023-03-11T09:22:53.731Z,16.50
2023-03-11T09:25:20.656Z,16.40
2023-03-11T09:27:49.138Z,16.40
2023-03-11T09:30:16.400Z,16.42
2023-03-11T09:32:43.348Z,16.38
2023-03-11T09:35:10.393Z,16.47
2023-03-11T09:37:37.346Z,16.44
2023-03-11T09:40:04.953Z,16.46
2023-03-11T09:42:37.530Z,16.47
2023-03-11T09:45:15.228Z,16.58
2023-03-11T09:48:01.805Z,16.53
2023-03-11T09:50:31.540Z,16.49
2023-03-11T09:53:21.667Z,16.57
2023-03-11T09:55:50.332Z,16.73
2023-03-11T09:58:27.359Z,17.15
2023-03-11T10:00:56.336Z,17.46
2023-03-11T10:03:30.203Z,17.70
2023-03-11T10:06:04.871Z,17.68
2023-03-11T10:08:38.941Z,17.68
2023-03-11T10:11:17.115Z,17.63
2023-03-11T10:13:52.303Z,17.59
2023-03-11T10:16:24.645Z,17.64
2023-03-11T10:19:03.317Z,17.71
2023-03-11T10:21:42.328Z,17.72
2023-03-11T10:24:24.095Z,17.66
2023-03-11T10:26:58.904Z,17.51
2023-03-11T10:29:28.592Z,17.20
2023-03-11T10:32:01.911Z,17.01
2023-03-11T10:34:38.363Z,16.91
2023-03-11T10:37:11.843Z,16.91
2023-03-11T10:39:39.461Z,16.94
2023-03-11T10:42:13.069Z,16.87
2023-03-11T10:44:41.849Z,16.84
2023-03-11T10:47:17.296Z,16.82
2023-03-11T10:49:44.486Z,16.76
2023-03-11T10:52:12.055Z,16.67
2023-03-11T10:54:46.117Z,16.70
2023-03-11T10:57:25.556Z,17.11
2023-03-11T10:59:54.195Z,17.63
2023-03-11T11:02:28.572Z,17.87
2023-03-11T11:05:07.324Z,17.88
2023-03-11T11:07:36.286Z,18.18
2023-03-11T11:10:20.831Z,18.71
2023-03-11T11:12:54.285Z,18.89
2023-03-11T11:15:22.660Z,18.74
2023-03-11T11:17:53.064Z,18.58
2023-03-11T11:20:22.413Z,18.61
2023-03-11T11:22:54.665Z,18.51
2023-03-11T11:25:27.909Z,18.14
2023-03-11T11:27:56.760Z,17.76
2023-03-11T11:30:24.527Z,17.62
2023-03-11T11:32:55.472Z,17.98
2023-03-11T11:35:24.803Z,18.67
2023-03-11T11:37:53.537Z,19.09
2023-03-11T11:40:29.921Z,19.61
2023-03-11T11:43:00.432Z,19.95
2023-03-11T11:45:36.542Z,20.01
2023-03-11T11:48:14.468Z,19.75
2023-03-11T11:50:44.988Z,19.45
2023-03-11T11:53:23.897Z,19.13
2023-03-11T11:55:54.106Z,18.70
2023-03-11T11:58:21.885Z,18.31
2023-03-11T12:00:58.286Z,18.06
2023-03-11T12:04:09.607Z,17.97
2023-03-11T12:06:44.643Z,18.01
2023-03-11T12:09:24.349Z,18.21
2023-03-11T12:11:56.931Z,18.18
2023-03-11T12:14:29.432Z,18.00
2023-03-11T12:16:58.793Z,17.81
2023-03-11T12:19:37.759Z,17.75
2023-03-11T12:22:38.121Z,17.62
2023-03-11T12:25:22.180Z,17.64
2023-03-11T12:27:55.649Z,17.61
2023-03-11T12:30:27.385Z,17.66
2023-03-11T12:32:59.228Z,17.71
2023-03-11T12:35:30.954Z,17.75
2023-03-11T12:38:05.678Z,17.67
2023-03-11T12:40:59.742Z,17.59
2023-03-11T12:44:08.204Z,17.48
2023-03-11T12:47:08.776Z,17.33
2023-03-11T12:49:37.076Z,17.23
2023-03-11T12:52:31.270Z,17.17
2023-03-11T12:55:37.722Z,17.14
2023-03-11T12:58:20.215Z,17.18
2023-03-11T13:01:01.075Z,17.19
2023-03-11T13:03:46.112Z,17.31
2023-03-11T13:06:37.172Z,17.59
2023-03-11T13:09:17.329Z,17.87
2023-03-11T13:11:46.980Z,18.11
2023-03-11T13:14:31.316Z,18.47
2023-03-11T13:17:24.619Z,18.97
2023-03-11T13:19:53.892Z,19.00
2023-03-11T13:22:56.192Z,18.95
2023-03-11T13:25:35.621Z,18.93
2023-03-11T13:28:18.313Z,19.14
2023-03-11T13:30:57.108Z,19.29
2023-03-11T13:33:31.555Z,18.96
2023-03-11T13:36:10.359Z,18.74
2023-03-11T13:38:57.621Z,18.64
2023-03-11T13:41:31.776Z,18.54
2023-03-11T13:44:06.395Z,18.68
2023-03-11T13:46:40.880Z,18.89
2023-03-11T13:49:19.647Z,19.15
2023-03-11T13:51:49.194Z,19.37
2023-03-11T13:54:38.451Z,19.58
2023-03-11T13:57:23.700Z,19.71
2023-03-11T13:59:54.516Z,19.78
2023-03-11T14:02:24.460Z,19.66
2023-03-11T14:04:54.646Z,19.44
2023-03-11T14:07:27.980Z,19.20
2023-03-11T14:10:26.877Z,19.15
2023-03-11T14:13:07.934Z,19.12
2023-03-11T14:15:44.250Z,19.22
2023-03-11T14:18:33.080Z,19.25
2023-03-11T14:21:01.027Z,19.20
2023-03-11T14:23:31.609Z,19.25
2023-03-11T14:26:01.337Z,19.29
2023-03-11T14:28:33.963Z,19.27
2023-03-11T14:31:02.177Z,19.21
2023-03-11T14:33:29.456Z,19.19
2023-03-11T14:35:59.774Z,19.13
2023-03-11T14:38:29.817Z,18.93
2023-03-11T14:40:58.982Z,18.69
2023-03-11T14:43:26.985Z,18.45
2023-03-11T14:45:55.977Z,18.32
2023-03-11T14:48:27.148Z,18.17
2023-03-11T14:50:57.059Z,18.02
2023-03-11T14:53:26.551Z,17.94
2023-03-11T14:55:56.913Z,17.66
2023-03-11T14:58:31.751Z,17.50
2023-03-11T15:01:04.929Z,17.26
2023-03-11T15:03:34.055Z,17.06
2023-03-11T15:06:05.583Z,16.91
2023-03-11T15:08:37.645Z,16.83
2023-03-11T15:11:08.049Z,16.76
2023-03-11T15:13:37.163Z,16.71
2023-03-11T15:16:08.243Z,16.73
2023-03-11T15:18:37.777Z,16.71
2023-03-11T15:21:14.212Z,16.66
2023-03-11T15:23:46.164Z,16.63
2023-03-11T15:26:22.435Z,16.62
2023-03-11T15:28:55.306Z,16.58
2023-03-11T15:31:39.504Z,16.53
2023-03-11T15:34:28.147Z,16.51
2023-03-11T15:37:01.769Z,16.38
2023-03-11T15:39:42.948Z,16.26
2023-03-11T15:42:17.994Z,16.17
2023-03-11T15:45:01.290Z,16.09
2023-03-11T15:47:29.716Z,15.98
2023-03-11T15:49:57.102Z,15.93
2023-03-11T15:52:24.178Z,15.84
2023-03-11T15:54:55.748Z,15.74
2023-03-11T15:57:26.168Z,15.64
2023-03-11T15:59:54.853Z,15.54
2023-03-11T16:02:23.969Z,15.44
2023-03-11T16:04:52.921Z,15.33
2023-03-11T16:07:36.467Z,15.22
2023-03-11T16:10:06.764Z,15.16
2023-03-11T16:12:33.742Z,15.06
2023-03-11T16:15:00.660Z,14.99
2023-03-11T16:17:31.860Z,14.92
2023-03-11T16:20:09.098Z,14.81
2023-03-11T16:22:38.083Z,14.74
2023-03-11T16:25:08.745Z,14.73
2023-03-11T16:27:35.768Z,14.68
2023-03-11T16:30:02.919Z,14.65
2023-03-11T16:32:29.973Z,14.62
2023-03-11T16:34:56.902Z,14.60
2023-03-11T16:37:25.223Z,14.59
2023-03-11T16:39:52.784Z,14.59
2023-03-11T16:42:22.978Z,14.56
2023-03-11T16:44:50.331Z,14.53
2023-03-11T16:47:17.311Z,14.55
2023-03-11T16:49:50.448Z,14.55
2023-03-11T16:52:20.839Z,14.51
2023-03-11T16:54:50.042Z,14.44
2023-03-11T16:57:16.943Z,14.41
2023-03-11T16:59:43.977Z,14.37
2023-03-11T17:02:11.758Z,14.30
2023-03-11T17:04:38.784Z,14.26
2023-03-11T17:07:07.048Z,14.25
2023-03-11T17:09:34.105Z,14.15
2023-03-11T17:12:03.103Z,14.02
2023-03-11T17:14:32.177Z,13.96
2023-03-11T17:16:59.364Z,13.85
2023-03-11T17:19:26.379Z,13.70
2023-03-11T17:21:53.298Z,13.56
2023-03-11T17:24:20.200Z,13.42
2023-03-11T17:26:47.142Z,13.36
2023-03-11T17:29:15.560Z,13.26
2023-03-11T17:31:42.820Z,13.13
2023-03-11T17:34:09.785Z,13.00
2023-03-11T17:36:36.864Z,12.85
2023-03-11T17:39:03.860Z,12.72
2023-03-11T17:41:30.892Z,12.65
2023-03-11T17:43:57.860Z,12.61
2023-03-11T17:46:26.204Z,12.55
2023-03-11T17:48:53.253Z,12.53
2023-03-11T17:51:24.297Z,12.41
2023-03-11T17:53:53.929Z,12.34
2023-03-11T17:56:22.112Z,12.27
2023-03-11T17:58:49.834Z,12.22
2023-03-11T18:01:18.654Z,12.15
2023-03-11T18:03:47.571Z,12.12
2023-03-11T18:06:15.521Z,12.05
2023-03-11T18:08:42.505Z,12.03
2023-03-11T18:11:11.558Z,11.91
2023-03-11T18:13:39.692Z,11.86
2023-03-11T18:16:09.112Z,11.67
2023-03-11T18:18:37.003Z,11.36
2023-03-11T18:21:06.939Z,11.18
2023-03-11T18:23:34.411Z,11.04
2023-03-11T18:26:03.123Z,10.90
2023-03-11T18:28:30.141Z,10.75
2023-03-11T18:30:57.673Z,10.60
2023-03-11T18:33:25.323Z,10.54
2023-03-11T18:35:53.432Z,10.46
2023-03-11T18:38:21.899Z,10.38
2023-03-11T18:40:56.629Z,10.24
2023-03-11T18:43:23.738Z,10.19
2023-03-11T18:45:50.667Z,10.21
2023-03-11T18:48:17.833Z,10.14
2023-03-11T18:50:51.165Z,10.12
2023-03-11T18:53:18.759Z,10.05
2023-03-11T18:55:47.448Z,10.02
2023-03-11T18:58:14.581Z,9.94
2023-03-11T19:00:41.471Z,9.94
2023-03-11T19:03:10.289Z,9.92
2023-03-11T19:05:37.287Z,9.91
2023-03-11T19:08:05.093Z,9.82
2023-03-11T19:10:32.089Z,9.77
2023-03-11T19:13:00.592Z,9.66
2023-03-11T19:15:27.654Z,9.65
2023-03-11T19:18:06.334Z,9.60
2023-03-11T19:20:34.110Z,9.57
2023-03-11T19:23:01.577Z,9.50
2023-03-11T19:25:28.931Z,9.51
2023-03-11T19:27:57.126Z,9.52
2023-03-11T19:30:26.000Z,9.52
2023-03-11T19:32:53.313Z,9.48
2023-03-11T19:35:21.639Z,9.43
2023-03-11T19:37:49.136Z,9.46
2023-03-11T19:40:17.637Z,9.43
2023-03-11T19:42:44.670Z,9.38
2023-03-11T19:45:11.924Z,9.32
2023-03-11T19:47:40.262Z,9.25
2023-03-11T19:50:08.567Z,9.17
2023-03-11T19:52:36.172Z,9.11
2023-03-11T19:55:03.894Z,9.02
2023-03-11T19:57:31.226Z,9.01
2023-03-11T19:59:58.191Z,8.96
2023-03-11T20:02:25.283Z,8.93
2023-03-11T20:04:53.972Z,8.85
2023-03-11T20:07:21.023Z,8.81
2023-03-11T20:09:48.131Z,8.75
2023-03-11T20:12:15.994Z,8.72
2023-03-11T20:14:42.951Z,8.60
2023-03-11T20:17:10.114Z,8.50
2023-03-11T20:19:37.092Z,8.49
2023-03-11T20:22:05.693Z,8.42
2023-03-11T20:24:32.731Z,8.36
2023-03-11T20:26:59.725Z,8.31
2023-03-11T20:29:26.782Z,8.25
2023-03-11T20:31:54.160Z,8.19
2023-03-11T20:34:21.179Z,8.15
2023-03-11T20:36:49.194Z,8.13
2023-03-11T20:39:17.578Z,8.12
2023-03-11T20:41:44.697Z,8.12
2023-03-11T20:44:13.575Z,8.12
2023-03-11T20:46:41.414Z,8.05
2023-03-11T20:49:08.376Z,8.04
2023-03-11T20:51:35.393Z,7.99
2023-03-11T20:54:02.385Z,8.02
2023-03-11T20:56:30.913Z,7.99
2023-03-11T20:58:59.363Z,7.98
2023-03-11T21:01:29.299Z,7.96
2023-03-11T21:03:57.968Z,7.80
2023-03-11T21:06:26.395Z,7.74
2023-03-11T21:08:54.536Z,7.73
2023-03-11T21:11:22.128Z,7.69
2023-03-11T21:13:50.861Z,7.72
2023-03-11T21:16:18.179Z,7.70
2023-03-11T21:18:48.666Z,7.79
2023-03-11T21:21:17.593Z,7.70
2023-03-11T21:23:45.501Z,7.64
2023-03-11T21:26:14.277Z,7.61
2023-03-11T21:28:46.234Z,7.54
2023-03-11T21:31:17.031Z,7.47
2023-03-11T21:33:44.746Z,7.42
2023-03-11T21:36:14.361Z,7.43
2023-03-11T21:38:41.872Z,7.45
2023-03-11T21:41:11.395Z,7.42
2023-03-11T21:43:39.580Z,7.46
2023-03-11T21:46:07.824Z,7.40
2023-03-11T21:48:36.426Z,7.35
2023-03-11T21:51:03.734Z,7.31
2023-03-11T21:53:31.432Z,7.24
2023-03-11T21:55:59.853Z,7.20
2023-03-11T21:58:27.449Z,7.14
2023-03-11T22:00:54.419Z,7.11
2023-03-11T22:03:22.057Z,7.05
2023-03-11T22:05:55.877Z,6.96
2023-03-11T22:08:22.966Z,6.93
2023-03-11T22:10:50.257Z,6.91
2023-03-11T22:13:17.185Z,6.87
2023-03-11T22:15:44.437Z,6.82
2023-03-11T22:18:11.767Z,6.81
2023-03-11T22:20:40.799Z,6.75
2023-03-11T22:23:13.065Z,6.73
2023-03-11T22:25:40.041Z,6.65
2023-03-11T22:28:06.998Z,6.64
2023-03-11T22:30:33.904Z,6.59
2023-03-11T22:33:00.922Z,6.59
2023-03-11T22:35:27.926Z,6.57
2023-03-11T22:37:54.909Z,6.54
2023-03-11T22:40:23.601Z,6.49
2023-03-11T22:42:50.564Z,6.48
2023-03-11T22:45:17.768Z,6.45
2023-03-11T22:47:44.690Z,6.43
2023-03-11T22:50:11.673Z,6.42
2023-03-11T22:52:38.671Z,6.38
2023-03-11T22:55:06.404Z,6.35
2023-03-11T22:57:38.779Z,6.37
2023-03-11T23:00:17.222Z,6.38
2023-03-11T23:02:44.602Z,6.34
2023-03-11T23:05:12.402Z,6.35
2023-03-11T23:07:39.786Z,6.35
2023-03-11T23:10:08.788Z,6.36
2023-03-11T23:12:37.800Z,6.37
2023-03-11T23:15:06.598Z,6.37
2023-03-11T23:17:33.992Z,6.37
2023-03-11T23:20:01.289Z,6.32
2023-03-11T23:22:28.331Z,6.30
2023-03-11T23:24:55.272Z,6.28
2023-03-11T23:27:22.595Z,6.25
2023-03-11T23:29:50.887Z,6.25
2023-03-11T23:32:17.950Z,6.21
2023-03-11T23:34:46.105Z,6.20
2023-03-11T23:37:13.263Z,6.15
2023-03-11T23:39:40.347Z,6.13
2023-03-11T23:42:22.614Z,6.16
2023-03-11T23:44:53.236Z,6.12
2023-03-11T23:47:20.646Z,6.10
2023-03-11T23:49:47.582Z,6.12
2023-03-11T23:52:14.570Z,6.08
2023-03-11T23:54:41.575Z,6.07
2023-03-11T23:57:08.512Z,6.09
2023-03-11T23:59:35.460Z,6.07
